sensor_id;sensor_type;location;lat;lon;timestamp;temperature;humidity
49148;DHT22;41980;45.550;12.070;2023-03-13T00:04:09;8.30;62.80
49148;DHT22;41980;45.550;12.070;2023-03-13T00:10:11;8.20;63.00
49148;DHT22;41980;45.550;12.070;2023-03-13T00:16:14;8.10;62.90
49148;DHT22;41980;45.550;12.070;2023-03-13T00:22:16;8.00;63.20
49148;DHT22;41980;45.550;12.070;2023-03-13T00:28:18;8.00;64.70
49148;DHT22;41980;45.550;12.070;2023-03-13T00:34:20;7.90;64.00
49148;DHT22;41980;45.550;12.070;2023-03-13T00:40:21;7.80;66.50
49148;DHT22;41980;45.550;12.070;2023-03-13T00:46:25;7.70;64.20
49148;DHT22;41980;45.550;12.070;2023-03-13T00:52:28;7.70;63.90
49148;DHT22;41980;45.550;12.070;2023-03-13T00:58:32;7.70;65.40
49148;DHT22;41980;45.550;12.070;2023-03-13T01:04:34;7.70;64.70
49148;DHT22;41980;45.550;12.070;2023-03-13T01:10:36;7.70;65.40
49148;DHT22;41980;45.550;12.070;2023-03-13T01:16:38;7.60;66.00
49148;DHT22;41980;45.550;12.070;2023-03-13T01:22:40;7.50;64.60
49148;DHT22;41980;45.550;12.070;2023-03-13T01:28:42;7.50;64.90
49148;DHT22;41980;45.550;12.070;2023-03-13T01:34:44;7.60;67.20
49148;DHT22;41980;45.550;12.070;2023-03-13T01:40:48;7.60;65.60
49148;DHT22;41980;45.550;12.070;2023-03-13T01:46:50;7.60;66.30
49148;DHT22;41980;45.550;12.070;2023-03-13T01:53:10;7.50;68.10
49148;DHT22;41980;45.550;12.070;2023-03-13T01:59:15;7.60;65.80
49148;DHT22;41980;45.550;12.070;2023-03-13T02:05:20;7.60;67.20
49148;DHT22;41980;45.550;12.070;2023-03-13T02:17:33;7.50;66.00
49148;DHT22;41980;45.550;12.070;2023-03-13T02:29:47;7.40;66.40
49148;DHT22;41980;45.550;12.070;2023-03-13T02:35:49;7.40;66.30
49148;DHT22;41980;45.550;12.070;2023-03-13T02:41:54;7.40;66.30
49148;DHT22;41980;45.550;12.070;2023-03-13T02:47:57;7.30;65.20
49148;DHT22;41980;45.550;12.070;2023-03-13T02:54:02;7.30;66.90
49148;DHT22;41980;45.550;12.070;2023-03-13T03:00:07;7.30;65.40
49148;DHT22;41980;45.550;12.070;2023-03-13T03:06:14;7.20;66.60
49148;DHT22;41980;45.550;12.070;2023-03-13T03:12:17;7.20;66.40
49148;DHT22;41980;45.550;12.070;2023-03-13T03:18:19;7.10;67.90
49148;DHT22;41980;45.550;12.070;2023-03-13T03:24:21;7.00;66.50
49148;DHT22;41980;45.550;12.070;2023-03-13T03:30:23;6.90;66.50
49148;DHT22;41980;45.550;12.070;2023-03-13T03:36:27;7.00;68.00
49148;DHT22;41980;45.550;12.070;2023-03-13T03:42:29;7.00;68.10
49148;DHT22;41980;45.550;12.070;2023-03-13T03:48:31;7.00;68.20
49148;DHT22;41980;45.550;12.070;2023-03-13T03:54:34;7.10;67.00
49148;DHT22;41980;45.550;12.070;2023-03-13T04:00:36;7.10;67.40
49148;DHT22;41980;45.550;12.070;2023-03-13T04:06:38;7.20;67.10
49148;DHT22;41980;45.550;12.070;2023-03-13T04:12:42;7.20;67.20
49148;DHT22;41980;45.550;12.070;2023-03-13T04:18:44;7.20;69.30
49148;DHT22;41980;45.550;12.070;2023-03-13T04:24:46;7.10;69.00
49148;DHT22;41980;45.550;12.070;2023-03-13T04:30:48;7.10;67.70
49148;DHT22;41980;45.550;12.070;2023-03-13T04:36:57;7.10;68.10
49148;DHT22;41980;45.550;12.070;2023-03-13T04:43:02;7.20;67.40
49148;DHT22;41980;45.550;12.070;2023-03-13T04:49:07;7.20;67.80
49148;DHT22;41980;45.550;12.070;2023-03-13T04:55:12;7.20;68.10
49148;DHT22;41980;45.550;12.070;2023-03-13T05:01:21;7.20;67.50
49148;DHT22;41980;45.550;12.070;2023-03-13T05:07:34;7.20;67.90
49148;DHT22;41980;45.550;12.070;2023-03-13T05:13:36;7.10;67.80
49148;DHT22;41980;45.550;12.070;2023-03-13T05:19:50;7.10;67.90
49148;DHT22;41980;45.550;12.070;2023-03-13T05:25:55;7.20;68.70
49148;DHT22;41980;45.550;12.070;2023-03-13T05:32:00;7.30;69.10
49148;DHT22;41980;45.550;12.070;2023-03-13T05:38:17;7.40;69.60
49148;DHT22;41980;45.550;12.070;2023-03-13T05:44:23;7.40;67.30
49148;DHT22;41980;45.550;12.070;2023-03-13T05:50:28;7.60;66.70
49148;DHT22;41980;45.550;12.070;2023-03-13T05:56:31;7.70;67.00
49148;DHT22;41980;45.550;12.070;2023-03-13T06:02:36;7.80;66.90
49148;DHT22;41980;45.550;12.070;2023-03-13T06:08:40;7.90;70.60
49148;DHT22;41980;45.550;12.070;2023-03-13T06:14:42;7.80;68.40
49148;DHT22;41980;45.550;12.070;2023-03-13T06:20:47;7.90;67.20
49148;DHT22;41980;45.550;12.070;2023-03-13T06:26:50;8.00;68.40
49148;DHT22;41980;45.550;12.070;2023-03-13T06:32:52;8.10;69.50
49148;DHT22;41980;45.550;12.070;2023-03-13T06:38:54;8.20;68.20
49148;DHT22;41980;45.550;12.070;2023-03-13T06:44:56;8.30;68.20
49148;DHT22;41980;45.550;12.070;2023-03-13T06:50:58;8.50;69.00
49148;DHT22;41980;45.550;12.070;2023-03-13T06:56:59;8.70;71.40
49148;DHT22;41980;45.550;12.070;2023-03-13T07:03:01;8.80;70.90
49148;DHT22;41980;45.550;12.070;2023-03-13T07:09:03;8.90;68.70
49148;DHT22;41980;45.550;12.070;2023-03-13T07:15:06;9.10;69.70
49148;DHT22;41980;45.550;12.070;2023-03-13T07:21:09;9.30;69.70
49148;DHT22;41980;45.550;12.070;2023-03-13T07:27:12;9.40;68.00
49148;DHT22;41980;45.550;12.070;2023-03-13T07:33:15;9.50;67.60
49148;DHT22;41980;45.550;12.070;2023-03-13T07:39:17;9.70;67.60
49148;DHT22;41980;45.550;12.070;2023-03-13T07:45:20;9.90;67.40
49148;DHT22;41980;45.550;12.070;2023-03-13T07:51:24;10.50;67.00
49148;DHT22;41980;45.550;12.070;2023-03-13T07:57:26;10.90;66.50
49148;DHT22;41980;45.550;12.070;2023-03-13T08:03:28;11.20;66.80
49148;DHT22;41980;45.550;12.070;2023-03-13T08:09:31;11.40;66.70
49148;DHT22;41980;45.550;12.070;2023-03-13T08:15:35;11.50;66.90
49148;DHT22;41980;45.550;12.070;2023-03-13T08:21:39;11.90;66.20
49148;DHT22;41980;45.550;12.070;2023-03-13T08:27:41;12.10;65.80
49148;DHT22;41980;45.550;12.070;2023-03-13T08:33:45;12.10;66.10
49148;DHT22;41980;45.550;12.070;2023-03-13T08:39:47;12.30;65.50
49148;DHT22;41980;45.550;12.070;2023-03-13T08:45:54;12.30;65.60
49148;DHT22;41980;45.550;12.070;2023-03-13T08:51:56;12.50;65.50
49148;DHT22;41980;45.550;12.070;2023-03-13T08:57:58;12.40;65.60
49148;DHT22;41980;45.550;12.070;2023-03-13T09:04:02;12.60;65.70
49148;DHT22;41980;45.550;12.070;2023-03-13T09:10:05;13.90;65.20
49148;DHT22;41980;45.550;12.070;2023-03-13T09:16:10;15.20;63.70
49148;DHT22;41980;45.550;12.070;2023-03-13T09:22:13;15.90;61.10
49148;DHT22;41980;45.550;12.070;2023-03-13T09:28:16;16.40;59.70
49148;DHT22;41980;45.550;12.070;2023-03-13T09:34:18;17.00;58.30
49148;DHT22;41980;45.550;12.070;2023-03-13T09:40:23;16.80;58.50
49148;DHT22;41980;45.550;12.070;2023-03-13T09:52:39;18.10;57.40
49148;DHT22;41980;45.550;12.070;2023-03-13T09:58:50;18.40;57.80
49148;DHT22;41980;45.550;12.070;2023-03-13T10:05:02;18.50;57.10
49148;DHT22;41980;45.550;12.070;2023-03-13T10:17:20;18.80;56.20
49148;DHT22;41980;45.550;12.070;2023-03-13T10:29:31;18.70;55.60
49148;DHT22;41980;45.550;12.070;2023-03-13T10:35:37;18.50;55.40
49148;DHT22;41980;45.550;12.070;2023-03-13T10:41:40;18.30;55.00
49148;DHT22;41980;45.550;12.070;2023-03-13T10:47:42;18.70;53.20
49148;DHT22;41980;45.550;12.070;2023-03-13T10:53:44;18.60;52.60
49148;DHT22;41980;45.550;12.070;2023-03-13T10:59:49;18.00;52.60
49148;DHT22;41980;45.550;12.070;2023-03-13T11:05:56;17.70;48.10
49148;DHT22;41980;45.550;12.070;2023-03-13T11:24:21;17.70;53.10
49148;DHT22;41980;45.550;12.070;2023-03-13T12:01:17;16.90;53.10
49148;DHT22;41980;45.550;12.070;2023-03-13T12:07:25;16.90;51.80
49148;DHT22;41980;45.550;12.070;2023-03-13T12:13:35;16.90;52.40
49148;DHT22;41980;45.550;12.070;2023-03-13T12:19:45;17.00;52.70
49148;DHT22;41980;45.550;12.070;2023-03-13T12:25:54;17.00;52.60
49148;DHT22;41980;45.550;12.070;2023-03-13T12:44:19;17.00;52.50
49148;DHT22;41980;45.550;12.070;2023-03-13T13:02:40;16.30;51.20
49148;DHT22;41980;45.550;12.070;2023-03-13T13:14:54;16.20;51.80
49148;DHT22;41980;45.550;12.070;2023-03-13T13:27:03;16.00;51.30
49148;DHT22;41980;45.550;12.070;2023-03-13T13:45:26;16.10;52.30
49148;DHT22;41980;45.550;12.070;2023-03-13T13:51:30;16.10;52.40
49148;DHT22;41980;45.550;12.070;2023-03-13T13:57:35;16.10;52.00
49148;DHT22;41980;45.550;12.070;2023-03-13T14:03:41;16.10;52.60
49148;DHT22;41980;45.550;12.070;2023-03-13T14:15:51;16.20;51.20
49148;DHT22;41980;45.550;12.070;2023-03-13T14:28:02;16.00;52.00
49148;DHT22;41980;45.550;12.070;2023-03-13T14:34:08;16.00;52.00
49148;DHT22;41980;45.550;12.070;2023-03-13T14:46:29;15.80;51.70
49148;DHT22;41980;45.550;12.070;2023-03-13T14:52:32;15.80;51.50
49148;DHT22;41980;45.550;12.070;2023-03-13T14:58:35;15.80;51.70
49148;DHT22;41980;45.550;12.070;2023-03-13T15:10:47;15.50;51.90
49148;DHT22;41980;45.550;12.070;2023-03-13T15:16:50;15.50;51.80
49148;DHT22;41980;45.550;12.070;2023-03-13T15:22:52;15.40;50.20
49148;DHT22;41980;45.550;12.070;2023-03-13T15:28:54;15.40;52.00
49148;DHT22;41980;45.550;12.070;2023-03-13T15:34:56;15.40;51.70
49148;DHT22;41980;45.550;12.070;2023-03-13T15:40:59;15.20;51.30
49148;DHT22;41980;45.550;12.070;2023-03-13T15:47:01;15.10;51.80
49148;DHT22;41980;45.550;12.070;2023-03-13T15:59:13;15.20;51.80
49148;DHT22;41980;45.550;12.070;2023-03-13T16:05:15;15.10;51.40
49148;DHT22;41980;45.550;12.070;2023-03-13T16:11:18;15.10;51.80
49148;DHT22;41980;45.550;12.070;2023-03-13T16:17:20;15.10;52.10
49148;DHT22;41980;45.550;12.070;2023-03-13T16:23:23;15.10;52.40
49148;DHT22;41980;45.550;12.070;2023-03-13T16:29:25;15.00;53.00
49148;DHT22;41980;45.550;12.070;2023-03-13T16:35:28;14.90;53.30
49148;DHT22;41980;45.550;12.070;2023-03-13T16:41:30;14.70;53.80
49148;DHT22;41980;45.550;12.070;2023-03-13T16:47:33;14.50;54.20
49148;DHT22;41980;45.550;12.070;2023-03-13T16:53:36;14.30;54.60
49148;DHT22;41980;45.550;12.070;2023-03-13T16:59:38;14.10;55.80
49148;DHT22;41980;45.550;12.070;2023-03-13T17:05:42;14.00;55.60
49148;DHT22;41980;45.550;12.070;2023-03-13T17:11:45;13.80;56.30
49148;DHT22;41980;45.550;12.070;2023-03-13T17:17:48;13.60;56.20
49148;DHT22;41980;45.550;12.070;2023-03-13T17:23:52;13.30;56.70
49148;DHT22;41980;45.550;12.070;2023-03-13T17:29:54;13.20;57.00
49148;DHT22;41980;45.550;12.070;2023-03-13T17:35:56;13.00;57.20
49148;DHT22;41980;45.550;12.070;2023-03-13T17:41:58;12.80;57.30
49148;DHT22;41980;45.550;12.070;2023-03-13T17:48:01;12.70;57.70
49148;DHT22;41980;45.550;12.070;2023-03-13T17:54:03;12.60;58.00
49148;DHT22;41980;45.550;12.070;2023-03-13T18:00:12;12.40;57.80
49148;DHT22;41980;45.550;12.070;2023-03-13T18:12:24;12.20;58.40
49148;DHT22;41980;45.550;12.070;2023-03-13T18:18:26;12.10;58.60
49148;DHT22;41980;45.550;12.070;2023-03-13T18:24:27;12.00;58.70
49148;DHT22;41980;45.550;12.070;2023-03-13T18:30:29;12.00;59.10
49148;DHT22;41980;45.550;12.070;2023-03-13T18:36:32;12.00;59.10
49148;DHT22;41980;45.550;12.070;2023-03-13T18:42:34;12.00;59.20
49148;DHT22;41980;45.550;12.070;2023-03-13T18:48:36;12.10;59.40
49148;DHT22;41980;45.550;12.070;2023-03-13T18:54:37;12.10;59.50
49148;DHT22;41980;45.550;12.070;2023-03-13T19:00:40;12.20;59.90
49148;DHT22;41980;45.550;12.070;2023-03-13T19:06:42;12.30;59.50
49148;DHT22;41980;45.550;12.070;2023-03-13T19:12:47;12.50;59.50
49148;DHT22;41980;45.550;12.070;2023-03-13T19:18:49;12.50;60.30
49148;DHT22;41980;45.550;12.070;2023-03-13T19:24:52;12.60;59.60
49148;DHT22;41980;45.550;12.070;2023-03-13T19:30:54;12.60;59.70
49148;DHT22;41980;45.550;12.070;2023-03-13T19:36:57;12.60;60.30
49148;DHT22;41980;45.550;12.070;2023-03-13T19:42:59;12.60;60.30
49148;DHT22;41980;45.550;12.070;2023-03-13T19:49:01;12.60;60.20
49148;DHT22;41980;45.550;12.070;2023-03-13T19:55:05;12.60;62.00
49148;DHT22;41980;45.550;12.070;2023-03-13T20:01:07;12.60;60.90
49148;DHT22;41980;45.550;12.070;2023-03-13T20:07:09;12.60;60.70
49148;DHT22;41980;45.550;12.070;2023-03-13T20:13:11;12.60;63.30
49148;DHT22;41980;45.550;12.070;2023-03-13T20:19:14;12.50;63.60
49148;DHT22;41980;45.550;12.070;2023-03-13T20:25:16;12.50;61.80
49148;DHT22;41980;45.550;12.070;2023-03-13T20:31:20;12.50;61.50
49148;DHT22;41980;45.550;12.070;2023-03-13T20:37:23;12.50;61.90
49148;DHT22;41980;45.550;12.070;2023-03-13T20:43:25;12.50;62.70
49148;DHT22;41980;45.550;12.070;2023-03-13T20:49:27;12.40;62.40
49148;DHT22;41980;45.550;12.070;2023-03-13T20:55:29;12.40;63.00
49148;DHT22;41980;45.550;12.070;2023-03-13T21:01:32;12.40;63.10
49148;DHT22;41980;45.550;12.070;2023-03-13T21:07:34;12.40;64.20
49148;DHT22;41980;45.550;12.070;2023-03-13T21:13:36;12.30;63.50
49148;DHT22;41980;45.550;12.070;2023-03-13T21:19:38;12.30;63.50
49148;DHT22;41980;45.550;12.070;2023-03-13T21:25:40;12.30;63.10
49148;DHT22;41980;45.550;12.070;2023-03-13T21:31:43;12.30;62.80
49148;DHT22;41980;45.550;12.070;2023-03-13T21:37:45;12.30;63.50
49148;DHT22;41980;45.550;12.070;2023-03-13T21:43:47;12.40;63.70
49148;DHT22;41980;45.550;12.070;2023-03-13T21:49:50;12.40;62.90
49148;DHT22;41980;45.550;12.070;2023-03-13T21:55:52;12.40;63.10
49148;DHT22;41980;45.550;12.070;2023-03-13T22:01:54;12.30;64.20
49148;DHT22;41980;45.550;12.070;2023-03-13T22:07:56;12.30;65.40
49148;DHT22;41980;45.550;12.070;2023-03-13T22:13:58;12.30;64.50
49148;DHT22;41980;45.550;12.070;2023-03-13T22:20:00;12.30;64.60
49148;DHT22;41980;45.550;12.070;2023-03-13T22:26:02;12.30;64.20
49148;DHT22;41980;45.550;12.070;2023-03-13T22:32:04;12.40;65.60
49148;DHT22;41980;45.550;12.070;2023-03-13T22:38:06;12.50;64.90
49148;DHT22;41980;45.550;12.070;2023-03-13T22:44:08;12.40;64.20
49148;DHT22;41980;45.550;12.070;2023-03-13T22:50:12;12.40;64.80
49148;DHT22;41980;45.550;12.070;2023-03-13T22:56:13;12.40;64.60
49148;DHT22;41980;45.550;12.070;2023-03-13T23:02:15;12.40;65.10
49148;DHT22;41980;45.550;12.070;2023-03-13T23:08:17;12.40;65.30
49148;DHT22;41980;45.550;12.070;2023-03-13T23:14:19;12.40;64.80
49148;DHT22;41980;45.550;12.070;2023-03-13T23:20:21;12.40;64.90
49148;DHT22;41980;45.550;12.070;2023-03-13T23:26:24;12.50;64.80
49148;DHT22;41980;45.550;12.070;2023-03-13T23:32:27;12.50;66.80
49148;DHT22;41980;45.550;12.070;2023-03-13T23:38:29;12.40;65.20
49148;DHT22;41980;45.550;12.070;2023-03-13T23:44:31;12.40;65.90
49148;DHT22;41980;45.550;12.070;2023-03-13T23:50:33;12.40;66.10
49148;DHT22;41980;45.550;12.070;2023-03-13T23:56:36;12.40;67.10
